Eye Of The Wind — GWAK — position and weather

sailwx.info

Track history (hours):
 
Tides and Currents Weather Stations Pressure Air Temp Water Temp Dewpoint Dewpoint Depression Visibility Wind Speed Wind Dir Waves Ship Positions

Eye Of The Wind

Last reported at 2018-Feb-23 18:08 UTC. Time now 2018-Feb-25 05:47 UTC.
Position N 17°12' W 062°23'.

Length 33 m; draft 2.8 m.

Type: Sailing vessel. MMSI: 233789000.

Date/timePositionNaut miles runAvg speedWind from/ knotsBaromVisibWave heightAir tempDewpointWater temp
2018-Feb-23 18:08N 17°12' W 062°23'2 7.1
2018-Feb-23 17:50N 17°13' W 062°22'2 6.9
2018-Feb-23 17:30N 17°14' W 062°20'4 7.1
2018-Feb-23 17:00N 17°17' W 062°17'3 7.1
2018-Feb-23 16:31N 17°19' W 062°14'4 7.3
2018-Feb-23 16:00N 17°22' W 062°12'3 7.0
2018-Feb-23 15:31N 17°24' W 062°09'4 7.3
2018-Feb-23 15:01N 17°27' W 062°06'4 7.1
2018-Feb-23 14:30N 17°29' W 062°04'3 6.7
2018-Feb-23 14:01N 17°31' W 062°01'3 6.8
2018-Feb-23 13:30N 17°33' W 061°58'3 6.6
2018-Feb-23 13:00N 17°35' W 061°55'2 4.5
2018-Feb-23 12:30N 17°37' W 061°53'0 0.1
2018-Feb-23 12:00N 17°37' W 061°53'0 0.0
2018-Feb-23 11:30N 17°36' W 061°53'0 0.1
2018-Feb-23 11:00N 17°37' W 061°53'0 0.0
2018-Feb-23 10:28N 17°37' W 061°53'0 0.0
2018-Feb-23 09:58N 17°37' W 061°53'0 0.0
2018-Feb-23 09:30N 17°37' W 061°53'0 0.0
2018-Feb-23 09:00N 17°37' W 061°53'0 0.0
2018-Feb-23 08:30N 17°37' W 061°53'0 0.0
2018-Feb-23 08:00N 17°37' W 061°53'0 0.0
2018-Feb-23 07:30N 17°37' W 061°53'0 0.0
2018-Feb-23 07:00N 17°37' W 061°53'0 0.0
2018-Feb-23 06:30N 17°37' W 061°53'0 0.0
2018-Feb-23 06:00N 17°37' W 061°53'0 0.0
2018-Feb-23 05:30N 17°37' W 061°53'0 0.0
2018-Feb-23 05:00N 17°37' W 061°53'0 0.0
2018-Feb-23 04:30N 17°37' W 061°53'0 0.0
2018-Feb-23 04:00N 17°37' W 061°53'0 0.0
2018-Feb-23 03:28N 17°37' W 061°53'0 0.0
2018-Feb-23 03:00N 17°37' W 061°53'0 0.0
2018-Feb-23 02:30N 17°37' W 061°53'0 0.0
2018-Feb-23 02:00N 17°37' W 061°53'0 0.0
2018-Feb-23 01:30N 17°37' W 061°53'0 0.0
2018-Feb-23 00:57N 17°37' W 061°53'0 0.0
2018-Feb-23 00:30N 17°37' W 061°53'0 0.0
2018-Feb-23 00:00N 17°37' W 061°53'0 0.0
2018-Feb-22 23:30N 17°37' W 061°53'0 0.0
2018-Feb-22 23:00N 17°37' W 061°53'0 0.0
2018-Feb-22 22:30N 17°37' W 061°53'0 0.0
2018-Feb-22 22:00N 17°37' W 061°53'1 2.5
2018-Feb-22 21:31N 17°35' W 061°54'1 1.1
2018-Feb-22 21:00N 17°35' W 061°54'3 5.3
2018-Feb-22 20:30N 17°32' W 061°54'2 5.0
2018-Feb-22 20:00N 17°30' W 061°55'3 6.8
2018-Feb-22 19:30N 17°27' W 061°55'3 6.7
2018-Feb-22 19:00N 17°23' W 061°54'3 5.9
2018-Feb-22 18:30N 17°20' W 061°54'3 5.3
2018-Feb-22 18:00N 17°18' W 061°54'2 4.4
2018-Feb-22 17:30N 17°16' W 061°54'2 4.4
2018-Feb-22 17:00N 17°13' W 061°55'2 3.7
2018-Feb-22 16:30N 17°11' W 061°55'2 4.1
2018-Feb-22 16:00N 17°09' W 061°55'2 4.1
2018-Feb-22 15:30N 17°07' W 061°55'2 4.4
2018-Feb-22 15:00N 17°05' W 061°56'2 4.8
2018-Feb-22 14:30N 17°04' W 061°53'0 0.4
2018-Feb-22 14:00N 17°04' W 061°53'0 0.0
2018-Feb-22 13:30N 17°04' W 061°53'0 0.0
2018-Feb-22 13:00N 17°04' W 061°53'0 0.0
2018-Feb-22 12:30N 17°04' W 061°53'0 0.0
2018-Feb-22 12:00N 17°04' W 061°53'0 0.0
2018-Feb-22 11:30N 17°04' W 061°53'0 0.0
2018-Feb-22 11:00N 17°04' W 061°53'0 0.0
2018-Feb-22 10:29N 17°04' W 061°53'0 0.0
2018-Feb-22 10:00N 17°04' W 061°53'0 0.0
2018-Feb-22 09:30N 17°04' W 061°53'0 0.0
2018-Feb-22 09:00N 17°04' W 061°53'0 0.0
2018-Feb-22 08:30N 17°04' W 061°53'0 0.0
2018-Feb-22 08:00N 17°04' W 061°53'0 0.0
2018-Feb-22 07:30N 17°04' W 061°53'0 0.0
2018-Feb-22 07:00N 17°04' W 061°53'0 0.0
2018-Feb-22 06:30N 17°04' W 061°53'0 0.0
2018-Feb-22 05:59N 17°04' W 061°53'0 0.0
2018-Feb-22 05:30N 17°04' W 061°53'0 0.0
2018-Feb-22 05:00N 17°04' W 061°53'0 0.0
2018-Feb-22 04:30N 17°04' W 061°53'0 0.0
2018-Feb-22 04:00N 17°04' W 061°53'0 0.0
2018-Feb-22 03:30N 17°04' W 061°53'0 0.0
2018-Feb-22 03:00N 17°04' W 061°53'0 0.0
2018-Feb-22 02:30N 17°04' W 061°53'0 0.0
2018-Feb-22 02:00N 17°04' W 061°53'0 0.0
2018-Feb-22 01:30N 17°04' W 061°53'0 0.0
2018-Feb-22 01:00N 17°04' W 061°53'0 0.0
2018-Feb-22 00:30N 17°04' W 061°53'0 0.0
2018-Feb-22 00:00N 17°04' W 061°53'0 0.0
2018-Feb-21 23:30N 17°04' W 061°53'0 0.0
2018-Feb-21 23:00N 17°04' W 061°53'0 0.0
2018-Feb-21 22:30N 17°04' W 061°53'0 0.0
2018-Feb-21 22:00N 17°04' W 061°53'0 0.0
2018-Feb-21 21:30N 17°04' W 061°53'0 0.0
2018-Feb-21 21:00N 17°04' W 061°53'0 0.0
2018-Feb-21 20:30N 17°04' W 061°53'0 0.0
2018-Feb-21 20:00N 17°04' W 061°53'0 0.0
2018-Feb-21 19:30N 17°04' W 061°53'0 0.0
2018-Feb-21 19:00N 17°04' W 061°53'0 0.0
2018-Feb-21 18:30N 17°04' W 061°53'0 0.0
2018-Feb-21 18:00N 17°04' W 061°53'0 0.0
2018-Feb-21 17:30N 17°04' W 061°53'0 0.0
2018-Feb-21 17:00N 17°04' W 061°53'0 0.0
2018-Feb-21 16:30N 17°04' W 061°53'0 0.0
2018-Feb-21 16:00N 17°04' W 061°53'0 0.0
2018-Feb-21 15:30N 17°04' W 061°53'0 0.0
2018-Feb-21 15:00N 17°04' W 061°53'0 0.0
2018-Feb-21 14:30N 17°04' W 061°53'0 0.0
2018-Feb-21 14:00N 17°04' W 061°53'0 0.0
2018-Feb-21 13:30N 17°04' W 061°53'0 0.0
2018-Feb-21 13:00N 17°04' W 061°53'0 0.0
2018-Feb-21 12:30N 17°04' W 061°53'0 0.0
2018-Feb-21 12:00N 17°04' W 061°53'0 0.0
2018-Feb-21 11:30N 17°04' W 061°53'0 0.0
2018-Feb-21 11:00N 17°04' W 061°53'0 0.0
2018-Feb-21 10:30N 17°04' W 061°53'0 0.0
2018-Feb-21 10:00N 17°04' W 061°53'0 0.0
2018-Feb-21 09:30N 17°04' W 061°53'0 0.0
2018-Feb-21 09:00N 17°04' W 061°53'0 0.0
2018-Feb-21 08:30N 17°04' W 061°53'0 0.0
2018-Feb-21 08:00N 17°04' W 061°53'0 0.0
2018-Feb-21 07:30N 17°04' W 061°53'0 0.0
2018-Feb-21 07:00N 17°04' W 061°53'0 0.0
2018-Feb-21 06:30N 17°04' W 061°53'0 0.0
2018-Feb-21 06:00N 17°04' W 061°53'0 0.0
2018-Feb-21 05:30N 17°04' W 061°53'0 0.0
2018-Feb-21 05:00N 17°04' W 061°53'0 0.0
2018-Feb-21 04:30N 17°04' W 061°53'0 0.0
2018-Feb-21 04:00N 17°04' W 061°53'0 0.0
2018-Feb-21 03:30N 17°04' W 061°53'0 0.0
2018-Feb-21 03:00N 17°04' W 061°53'0 0.0
2018-Feb-21 02:30N 17°04' W 061°53'0 0.0
2018-Feb-21 01:59N 17°04' W 061°53'0 0.0
2018-Feb-21 01:30N 17°04' W 061°53'0 0.0
2018-Feb-21 01:00N 17°04' W 061°53'0 0.0
2018-Feb-21 00:30N 17°04' W 061°53'0 0.0
2018-Feb-21 00:00N 17°04' W 061°53'0 0.0
2018-Feb-20 23:30N 17°04' W 061°53'0 0.0
2018-Feb-20 23:00N 17°04' W 061°53'0 0.0
2018-Feb-20 22:30N 17°04' W 061°53'0 0.0
2018-Feb-20 22:00N 17°04' W 061°53'0 0.0
2018-Feb-20 21:30N 17°04' W 061°53'0 0.5
2018-Feb-20 21:00N 17°04' W 061°53'2 3.4
2018-Feb-20 20:30N 17°05' W 061°55'2 3.5
2018-Feb-20 20:01N 17°03' W 061°56'3 6.0
2018-Feb-20 19:30N 17°00' W 061°56'3 6.8
2018-Feb-20 19:00N 16°57' W 061°55'3 6.3
2018-Feb-20 18:31N 16°54' W 061°54'3 6.0
2018-Feb-20 18:01N 16°51' W 061°54'3 5.6
2018-Feb-20 17:30N 16°48' W 061°53'3 5.3
2018-Feb-20 17:00N 16°46' W 061°53'3 6.5
2018-Feb-20 16:30N 16°42' W 061°52'3 6.8
2018-Feb-20 16:00N 16°39' W 061°51'3 6.2
2018-Feb-20 15:30N 16°36' W 061°51'3 5.8
2018-Feb-20 15:00N 16°33' W 061°50'3 5.3
2018-Feb-20 14:30N 16°31' W 061°49'2 4.2
2018-Feb-20 14:00N 16°29' W 061°49'2 4.2
2018-Feb-20 13:30N 16°26' W 061°49'2 5.0
2018-Feb-20 13:00N 16°24' W 061°49'2 4.4
2018-Feb-20 12:29N 16°22' W 061°48'3 5.2
2018-Feb-20 11:56N 16°19' W 061°49'1 1.6
2018-Feb-20 11:29N 16°18' W 061°48'0 0.0
2018-Feb-20 10:59N 16°18' W 061°48'0 0.0
2018-Feb-20 10:26N 16°18' W 061°48'0 0.0
2018-Feb-20 09:26N 16°18' W 061°48'0 0.0
2018-Feb-20 08:56N 16°18' W 061°48'0 0.0
2018-Feb-20 08:29N 16°18' W 061°48'0 0.0
2018-Feb-20 07:59N 16°18' W 061°48'0 0.0
2018-Feb-20 06:35N 16°18' W 061°48'0 0.0
2018-Feb-20 06:11N 16°18' W 061°48'0 0.0
2018-Feb-20 05:56N 16°18' W 061°48'0 0.0
2018-Feb-20 05:05N 16°18' W 061°48'0 0.1
2018-Feb-20 04:59N 16°18' W 061°48'0 0.0
2018-Feb-20 04:29N 16°18' W 061°48'0 0.0
2018-Feb-20 03:38N 16°18' W 061°48'0 0.0
2018-Feb-20 01:23N 16°18' W 061°48'0 0.0
2018-Feb-20 00:59N 16°18' W 061°48'0 0.0
2018-Feb-20 00:23N 16°18' W 061°48'0 0.0
2018-Feb-19 22:56N 16°18' W 061°48'0 0.0
2018-Feb-19 22:17N 16°18' W 061°48'0 0.0
2018-Feb-19 21:50N 16°18' W 061°48'0 0.0
2018-Feb-19 20:50N 16°18' W 061°48'0 0.1
2018-Feb-19 20:25N 16°18' W 061°48'2 4.2
2018-Feb-19 20:00N 16°17' W 061°50'17 4.7
2018-Feb-19 16:29N 16°01' W 061°47'  
Track history (hours):
 
Tides and Currents Weather Stations Pressure Air Temp Water Temp Dewpoint Dewpoint Depression Visibility Wind Speed Wind Dir Waves Ship Positions

Eye Of The Wind

Last reported at 2018-Feb-23 18:08 UTC. Time now 2018-Feb-25 05:47 UTC.
Position N 17°12' W 062°23'.

Length 33 m; draft 2.8 m.

Type: Sailing vessel. MMSI: 233789000.

Date/timePositionNaut miles runAvg speedWind from/ knotsBaromVisibWave heightAir tempDewpointWater temp
2018-Feb-23 18:08N 17°12' W 062°23'2 7.1
2018-Feb-23 17:50N 17°13' W 062°22'2 6.9
2018-Feb-23 17:30N 17°14' W 062°20'4 7.1
2018-Feb-23 17:00N 17°17' W 062°17'3 7.1
2018-Feb-23 16:31N 17°19' W 062°14'4 7.3
2018-Feb-23 16:00N 17°22' W 062°12'3 7.0
2018-Feb-23 15:31N 17°24' W 062°09'4 7.3
2018-Feb-23 15:01N 17°27' W 062°06'4 7.1
2018-Feb-23 14:30N 17°29' W 062°04'3 6.7
2018-Feb-23 14:01N 17°31' W 062°01'3 6.8
2018-Feb-23 13:30N 17°33' W 061°58'3 6.6
2018-Feb-23 13:00N 17°35' W 061°55'2 4.5
2018-Feb-23 12:30N 17°37' W 061°53'0 0.1
2018-Feb-23 12:00N 17°37' W 061°53'0 0.0
2018-Feb-23 11:30N 17°36' W 061°53'0 0.1
2018-Feb-23 11:00N 17°37' W 061°53'0 0.0
2018-Feb-23 10:28N 17°37' W 061°53'0 0.0
2018-Feb-23 09:58N 17°37' W 061°53'0 0.0
2018-Feb-23 09:30N 17°37' W 061°53'0 0.0
2018-Feb-23 09:00N 17°37' W 061°53'0 0.0
2018-Feb-23 08:30N 17°37' W 061°53'0 0.0
2018-Feb-23 08:00N 17°37' W 061°53'0 0.0
2018-Feb-23 07:30N 17°37' W 061°53'0 0.0
2018-Feb-23 07:00N 17°37' W 061°53'0 0.0
2018-Feb-23 06:30N 17°37' W 061°53'0 0.0
2018-Feb-23 06:00N 17°37' W 061°53'0 0.0
2018-Feb-23 05:30N 17°37' W 061°53'0 0.0
2018-Feb-23 05:00N 17°37' W 061°53'0 0.0
2018-Feb-23 04:30N 17°37' W 061°53'0 0.0
2018-Feb-23 04:00N 17°37' W 061°53'0 0.0
2018-Feb-23 03:28N 17°37' W 061°53'0 0.0
2018-Feb-23 03:00N 17°37' W 061°53'0 0.0
2018-Feb-23 02:30N 17°37' W 061°53'0 0.0
2018-Feb-23 02:00N 17°37' W 061°53'0 0.0
2018-Feb-23 01:30N 17°37' W 061°53'0 0.0
2018-Feb-23 00:57N 17°37' W 061°53'0 0.0
2018-Feb-23 00:30N 17°37' W 061°53'0 0.0
2018-Feb-23 00:00N 17°37' W 061°53'0 0.0
2018-Feb-22 23:30N 17°37' W 061°53'0 0.0
2018-Feb-22 23:00N 17°37' W 061°53'0 0.0
2018-Feb-22 22:30N 17°37' W 061°53'0 0.0
2018-Feb-22 22:00N 17°37' W 061°53'1 2.5
2018-Feb-22 21:31N 17°35' W 061°54'1 1.1
2018-Feb-22 21:00N 17°35' W 061°54'3 5.3
2018-Feb-22 20:30N 17°32' W 061°54'2 5.0
2018-Feb-22 20:00N 17°30' W 061°55'3 6.8
2018-Feb-22 19:30N 17°27' W 061°55'3 6.7
2018-Feb-22 19:00N 17°23' W 061°54'3 5.9
2018-Feb-22 18:30N 17°20' W 061°54'3 5.3
2018-Feb-22 18:00N 17°18' W 061°54'2 4.4
2018-Feb-22 17:30N 17°16' W 061°54'2 4.4
2018-Feb-22 17:00N 17°13' W 061°55'2 3.7
2018-Feb-22 16:30N 17°11' W 061°55'2 4.1
2018-Feb-22 16:00N 17°09' W 061°55'2 4.1
2018-Feb-22 15:30N 17°07' W 061°55'2 4.4
2018-Feb-22 15:00N 17°05' W 061°56'2 4.8
2018-Feb-22 14:30N 17°04' W 061°53'0 0.4
2018-Feb-22 14:00N 17°04' W 061°53'0 0.0
2018-Feb-22 13:30N 17°04' W 061°53'0 0.0
2018-Feb-22 13:00N 17°04' W 061°53'0 0.0
2018-Feb-22 12:30N 17°04' W 061°53'0 0.0
2018-Feb-22 12:00N 17°04' W 061°53'0 0.0
2018-Feb-22 11:30N 17°04' W 061°53'0 0.0
2018-Feb-22 11:00N 17°04' W 061°53'0 0.0
2018-Feb-22 10:29N 17°04' W 061°53'0 0.0
2018-Feb-22 10:00N 17°04' W 061°53'0 0.0
2018-Feb-22 09:30N 17°04' W 061°53'0 0.0
2018-Feb-22 09:00N 17°04' W 061°53'0 0.0
2018-Feb-22 08:30N 17°04' W 061°53'0 0.0
2018-Feb-22 08:00N 17°04' W 061°53'0 0.0
2018-Feb-22 07:30N 17°04' W 061°53'0 0.0
2018-Feb-22 07:00N 17°04' W 061°53'0 0.0
2018-Feb-22 06:30N 17°04' W 061°53'0 0.0
2018-Feb-22 05:59N 17°04' W 061°53'0 0.0
2018-Feb-22 05:30N 17°04' W 061°53'0 0.0
2018-Feb-22 05:00N 17°04' W 061°53'0 0.0
2018-Feb-22 04:30N 17°04' W 061°53'0 0.0
2018-Feb-22 04:00N 17°04' W 061°53'0 0.0
2018-Feb-22 03:30N 17°04' W 061°53'0 0.0
2018-Feb-22 03:00N 17°04' W 061°53'0 0.0
2018-Feb-22 02:30N 17°04' W 061°53'0 0.0
2018-Feb-22 02:00N 17°04' W 061°53'0 0.0
2018-Feb-22 01:30N 17°04' W 061°53'0 0.0
2018-Feb-22 01:00N 17°04' W 061°53'0 0.0
2018-Feb-22 00:30N 17°04' W 061°53'0 0.0
2018-Feb-22 00:00N 17°04' W 061°53'0 0.0
2018-Feb-21 23:30N 17°04' W 061°53'0 0.0
2018-Feb-21 23:00N 17°04' W 061°53'0 0.0
2018-Feb-21 22:30N 17°04' W 061°53'0 0.0
2018-Feb-21 22:00N 17°04' W 061°53'0 0.0
2018-Feb-21 21:30N 17°04' W 061°53'0 0.0
2018-Feb-21 21:00N 17°04' W 061°53'0 0.0
2018-Feb-21 20:30N 17°04' W 061°53'0 0.0
2018-Feb-21 20:00N 17°04' W 061°53'0 0.0
2018-Feb-21 19:30N 17°04' W 061°53'0 0.0
2018-Feb-21 19:00N 17°04' W 061°53'0 0.0
2018-Feb-21 18:30N 17°04' W 061°53'0 0.0
2018-Feb-21 18:00N 17°04' W 061°53'0 0.0
2018-Feb-21 17:30N 17°04' W 061°53'0 0.0
2018-Feb-21 17:00N 17°04' W 061°53'0 0.0
2018-Feb-21 16:30N 17°04' W 061°53'0 0.0
2018-Feb-21 16:00N 17°04' W 061°53'0 0.0
2018-Feb-21 15:30N 17°04' W 061°53'0 0.0
2018-Feb-21 15:00N 17°04' W 061°53'0 0.0
2018-Feb-21 14:30N 17°04' W 061°53'0 0.0
2018-Feb-21 14:00N 17°04' W 061°53'0 0.0
2018-Feb-21 13:30N 17°04' W 061°53'0 0.0
2018-Feb-21 13:00N 17°04' W 061°53'0 0.0
2018-Feb-21 12:30N 17°04' W 061°53'0 0.0
2018-Feb-21 12:00N 17°04' W 061°53'0 0.0
2018-Feb-21 11:30N 17°04' W 061°53'0 0.0
2018-Feb-21 11:00N 17°04' W 061°53'0 0.0
2018-Feb-21 10:30N 17°04' W 061°53'0 0.0
2018-Feb-21 10:00N 17°04' W 061°53'0 0.0
2018-Feb-21 09:30N 17°04' W 061°53'0 0.0
2018-Feb-21 09:00N 17°04' W 061°53'0 0.0
2018-Feb-21 08:30N 17°04' W 061°53'0 0.0
2018-Feb-21 08:00N 17°04' W 061°53'0 0.0
2018-Feb-21 07:30N 17°04' W 061°53'0 0.0
2018-Feb-21 07:00N 17°04' W 061°53'0 0.0
2018-Feb-21 06:30N 17°04' W 061°53'0 0.0
2018-Feb-21 06:00N 17°04' W 061°53'0 0.0
2018-Feb-21 05:30N 17°04' W 061°53'0 0.0
2018-Feb-21 05:00N 17°04' W 061°53'0 0.0
2018-Feb-21 04:30N 17°04' W 061°53'0 0.0
2018-Feb-21 04:00N 17°04' W 061°53'0 0.0
2018-Feb-21 03:30N 17°04' W 061°53'0 0.0
2018-Feb-21 03:00N 17°04' W 061°53'0 0.0
2018-Feb-21 02:30N 17°04' W 061°53'0 0.0
2018-Feb-21 01:59N 17°04' W 061°53'0 0.0
2018-Feb-21 01:30N 17°04' W 061°53'0 0.0
2018-Feb-21 01:00N 17°04' W 061°53'0 0.0
2018-Feb-21 00:30N 17°04' W 061°53'0 0.0
2018-Feb-21 00:00N 17°04' W 061°53'0 0.0
2018-Feb-20 23:30N 17°04' W 061°53'0 0.0
2018-Feb-20 23:00N 17°04' W 061°53'0 0.0
2018-Feb-20 22:30N 17°04' W 061°53'0 0.0
2018-Feb-20 22:00N 17°04' W 061°53'0 0.0
2018-Feb-20 21:30N 17°04' W 061°53'0 0.5
2018-Feb-20 21:00N 17°04' W 061°53'2 3.4
2018-Feb-20 20:30N 17°05' W 061°55'2 3.5
2018-Feb-20 20:01N 17°03' W 061°56'3 6.0
2018-Feb-20 19:30N 17°00' W 061°56'3 6.8
2018-Feb-20 19:00N 16°57' W 061°55'3 6.3
2018-Feb-20 18:31N 16°54' W 061°54'3 6.0
2018-Feb-20 18:01N 16°51' W 061°54'3 5.6
2018-Feb-20 17:30N 16°48' W 061°53'3 5.3
2018-Feb-20 17:00N 16°46' W 061°53'3 6.5
2018-Feb-20 16:30N 16°42' W 061°52'3 6.8
2018-Feb-20 16:00N 16°39' W 061°51'3 6.2
2018-Feb-20 15:30N 16°36' W 061°51'3 5.8
2018-Feb-20 15:00N 16°33' W 061°50'3 5.3
2018-Feb-20 14:30N 16°31' W 061°49'2 4.2
2018-Feb-20 14:00N 16°29' W 061°49'2 4.2
2018-Feb-20 13:30N 16°26' W 061°49'2 5.0
2018-Feb-20 13:00N 16°24' W 061°49'2 4.4
2018-Feb-20 12:29N 16°22' W 061°48'3 5.2
2018-Feb-20 11:56N 16°19' W 061°49'1 1.6
2018-Feb-20 11:29N 16°18' W 061°48'0 0.0
2018-Feb-20 10:59N 16°18' W 061°48'0 0.0
2018-Feb-20 10:26N 16°18' W 061°48'0 0.0
2018-Feb-20 09:26N 16°18' W 061°48'0 0.0
2018-Feb-20 08:56N 16°18' W 061°48'0 0.0
2018-Feb-20 08:29N 16°18' W 061°48'0 0.0
2018-Feb-20 07:59N 16°18' W 061°48'0 0.0
2018-Feb-20 06:35N 16°18' W 061°48'0 0.0
2018-Feb-20 06:11N 16°18' W 061°48'0 0.0
2018-Feb-20 05:56N 16°18' W 061°48'0 0.0
2018-Feb-20 05:05N 16°18' W 061°48'0 0.1
2018-Feb-20 04:59N 16°18' W 061°48'0 0.0
2018-Feb-20 04:29N 16°18' W 061°48'0 0.0
2018-Feb-20 03:38N 16°18' W 061°48'0 0.0
2018-Feb-20 01:23N 16°18' W 061°48'0 0.0
2018-Feb-20 00:59N 16°18' W 061°48'0 0.0
2018-Feb-20 00:23N 16°18' W 061°48'0 0.0
2018-Feb-19 22:56N 16°18' W 061°48'0 0.0
2018-Feb-19 22:17N 16°18' W 061°48'0 0.0
2018-Feb-19 21:50N 16°18' W 061°48'0 0.0
2018-Feb-19 20:50N 16°18' W 061°48'0 0.1
2018-Feb-19 20:25N 16°18' W 061°48'2 4.2
2018-Feb-19 20:00N 16°17' W 061°50'17 4.7
2018-Feb-19 16:29N 16°01' W 061°47'  

Dump ship's entire track history